Time;durP1;ratioP1;P1;durP2;ratioP2;P2;SDS_P1;SDS_P2;PMS_P1;PMS_P2;Temp;Humidity;BMP_temperature;BMP_pressure;BME280_temperature;BME280_humidity;BME280_pressure;Samples;Min_cycle;Max_cycle;Signal;HPM_P1;HPM_P2
2022/06/21 00:00:39;;;;;;;5.15;2.85;;;;;;;16.86;70.49;94281.91;5094808;28;20265;-78
2022/06/21 00:03:09;;;;;;;5.35;2.90;;;;;;;16.87;70.45;94286.22;5094919;28;20218;-77
2022/06/21 00:05:41;;;;;;;9.57;2.83;;;;;;;16.87;70.96;94280.75;5094409;28;20220;-77
2022/06/21 00:08:13;;;;;;;3.28;2.75;;;;;;;16.83;71.10;94279.91;5094874;28;20194;-77
2022/06/21 00:10:41;;;;;;;4.88;2.78;;;;;;;16.68;71.01;94278.19;5094417;28;20190;-77
2022/06/21 00:13:11;;;;;;;2.92;2.30;;;;;;;16.76;70.79;94279.88;5094616;28;20233;-77
2022/06/21 00:15:39;;;;;;;6.32;2.85;;;;;;;16.78;70.35;94283.00;5094327;28;20222;-77
2022/06/21 00:18:09;;;;;;;5.00;2.58;;;;;;;16.80;70.74;94274.44;5093973;28;20241;-77
2022/06/21 00:20:37;;;;;;;3.92;2.45;;;;;;;16.80;71.00;94275.22;5093670;28;20198;-77
2022/06/21 00:23:04;;;;;;;6.07;2.70;;;;;;;16.76;71.13;94279.88;5094029;28;20226;-77
2022/06/21 00:25:31;;;;;;;3.03;2.30;;;;;;;16.58;71.21;94284.31;5094024;28;20249;-76
2022/06/21 00:27:58;;;;;;;4.43;3.00;;;;;;;16.45;71.81;94285.72;5094203;28;20220;-76
2022/06/21 00:30:25;;;;;;;3.83;2.60;;;;;;;16.51;72.81;94278.78;5093655;28;20226;-76
2022/06/21 00:32:55;;;;;;;3.70;2.28;;;;;;;16.54;72.78;94273.31;5093939;28;20230;-78
2022/06/21 00:35:25;;;;;;;3.40;2.50;;;;;;;16.61;72.41;94267.16;5093908;28;20688;-78
2022/06/21 00:37:54;;;;;;;5.03;2.67;;;;;;;16.53;72.80;94273.72;5093828;28;20206;-78
2022/06/21 00:40:25;;;;;;;3.55;2.70;;;;;;;16.53;73.05;94265.53;5092337;28;20649;-76
2022/06/21 00:42:56;;;;;;;3.47;2.70;;;;;;;16.59;72.86;94274.94;5094079;28;20218;-78
2022/06/21 00:45:35;;;;;;;7.50;2.35;;;;;;;16.56;72.52;94264.75;5093311;28;20222;-78
2022/06/21 00:48:13;;;;;;;8.00;2.88;;;;;;;16.53;73.13;94269.03;5094181;28;20222;-78
2022/06/21 00:50:43;;;;;;;5.00;2.35;;;;;;;16.55;72.97;94277.63;5093339;28;20287;-78
2022/06/21 00:53:17;;;;;;;5.97;1.73;;;;;;;16.52;72.25;94272.16;5093910;28;20229;-78
2022/06/21 00:55:50;;;;;;;2.33;2.13;;;;;;;16.50;72.36;94271.72;5093345;28;20271;-78
2022/06/21 00:58:19;;;;;;;2.58;2.22;;;;;;;16.38;72.91;94269.25;5093698;28;20190;-76
2022/06/21 01:01:03;;;;;;;3.97;2.03;;;;;;;16.33;72.93;94265.69;5093520;28;20222;-75
2022/06/21 01:03:33;;;;;;;2.78;1.83;;;;;;;16.35;72.68;94266.09;5093446;28;20657;-76
2022/06/21 01:06:04;;;;;;;4.75;2.28;;;;;;;16.25;73.02;94272.25;5093262;28;20610;-77
2022/06/21 01:08:37;;;;;;;2.40;2.05;;;;;;;16.15;73.05;94259.19;5093462;28;20239;-76
2022/06/21 01:11:09;;;;;;;4.72;1.95;;;;;;;16.03;73.67;94264.91;5092461;28;20240;-76
2022/06/21 01:13:40;;;;;;;4.13;2.33;;;;;;;16.01;73.73;94261.75;5092975;28;20242;-78
2022/06/21 01:16:07;;;;;;;6.57;2.17;;;;;;;16.03;74.19;94264.13;5092682;28;20222;-76
2022/06/21 01:18:35;;;;;;;3.60;2.40;;;;;;;16.07;74.19;94265.75;5093018;28;20277;-75
2022/06/21 01:21:03;;;;;;;2.60;1.90;;;;;;;16.04;74.03;94274.69;5092772;28;20218;-77
2022/06/21 01:24:04;;;;;;;3.97;2.13;;;;;;;15.86;74.19;94270.91;5092549;28;20289;-77
2022/06/21 01:26:41;;;;;;;4.15;2.33;;;;;;;15.96;74.21;94270.28;5091963;28;20535;-77
2022/06/21 01:29:11;;;;;;;5.43;3.08;;;;;;;16.13;73.09;94269.72;5092517;28;20585;-77
2022/06/21 01:31:38;;;;;;;4.07;2.30;;;;;;;16.12;73.62;94273.63;5092522;28;20190;-77
2022/06/21 01:34:09;;;;;;;4.30;2.30;;;;;;;16.12;73.28;94279.09;5092979;28;20283;-78
2022/06/21 01:36:37;;;;;;;4.20;2.67;;;;;;;16.15;73.28;94280.28;5092672;28;20305;-77
2022/06/21 01:39:08;;;;;;;3.78;2.03;;;;;;;15.98;73.66;94279.69;5092195;28;20639;-77
2022/06/21 01:41:40;;;;;;;2.95;2.30;;;;;;;16.00;73.68;94280.09;5091698;28;20734;-78
2022/06/21 01:44:11;;;;;;;4.15;2.80;;;;;;;16.03;73.49;94281.31;5092057;28;20240;-78
2022/06/21 01:46:38;;;;;;;3.30;2.30;;;;;;;16.02;73.49;94274.25;5092810;28;20237;-76
2022/06/21 01:49:08;;;;;;;5.05;2.78;;;;;;;15.83;74.47;94288.84;5092250;28;20604;-77
2022/06/21 01:51:39;;;;;;;3.40;2.58;;;;;;;15.78;74.77;94280.19;5091995;28;20214;-77
2022/06/21 01:54:10;;;;;;;5.10;2.25;;;;;;;15.77;74.52;94278.59;5091876;28;20717;-76
2022/06/21 01:56:41;;;;;;;6.72;2.13;;;;;;;15.75;74.51;94275.44;5092580;28;20187;-77
2022/06/21 01:59:12;;;;;;;4.30;2.60;;;;;;;15.81;73.81;94274.00;5092383;28;20585;-76
2022/06/21 02:01:45;;;;;;;3.08;2.50;;;;;;;15.87;73.85;94277.94;5092713;28;20218;-76
2022/06/21 02:04:17;;;;;;;5.35;3.00;;;;;;;15.95;74.16;94282.38;5092816;28;20244;-76
2022/06/21 02:06:46;;;;;;;9.43;3.20;;;;;;;15.89;74.43;94281.09;5092325;28;20194;-77
2022/06/21 02:09:18;;;;;;;2.65;2.30;;;;;;;15.90;74.26;94283.47;5092468;28;20225;-76
2022/06/21 02:11:51;;;;;;;5.45;2.60;;;;;;;15.95;74.34;94285.09;5092591;28;20186;-76
2022/06/21 02:14:29;;;;;;;4.03;2.53;;;;;;;15.88;74.47;94279.53;5092331;28;20267;-76
2022/06/21 02:17:04;;;;;;;3.97;2.65;;;;;;;15.84;74.70;94278.72;5092367;28;20185;-76
2022/06/21 02:19:39;;;;;;;3.85;2.58;;;;;;;15.82;74.92;94270.88;5091722;28;20626;-76
2022/06/21 02:22:06;;;;;;;3.38;2.60;;;;;;;15.77;75.15;94289.53;5091858;28;20304;-76
2022/06/21 02:24:33;;;;;;;3.65;2.80;;;;;;;15.63;75.51;94288.16;5091496;28;20252;-77
2022/06/21 02:27:04;;;;;;;4.00;2.72;;;;;;;15.61;75.50;94276.81;5092010;28;20757;-78
2022/06/21 02:29:34;;;;;;;4.85;3.15;;;;;;;15.51;76.24;94273.91;5091726;28;20218;-77
2022/06/21 02:32:01;;;;;;;5.60;2.83;;;;;;;15.54;76.17;94265.78;5091941;28;20276;-77
2022/06/21 02:34:33;;;;;;;5.78;3.10;;;;;;;15.58;76.58;94272.09;5091718;28;20230;-78
2022/06/21 02:37:02;;;;;;;6.65;2.78;;;;;;;15.58;76.58;94266.63;5091759;28;20614;-77
2022/06/21 02:39:32;;;;;;;4.68;3.03;;;;;;;15.57;76.53;94265.06;5091960;28;20259;-78
2022/06/21 02:42:05;;;;;;;6.43;3.35;;;;;;;15.63;76.47;94263.59;5091942;28;20222;-78
2022/06/21 02:44:39;;;;;;;5.40;3.10;;;;;;;15.67;76.43;94265.59;5091299;28;20680;-76
2022/06/21 02:47:14;;;;;;;6.28;3.33;;;;;;;15.71;76.09;94267.22;5091407;28;20581;-76
2022/06/21 02:49:46;;;;;;;4.82;3.20;;;;;;;15.77;75.87;94270.41;5091111;28;20190;-76
2022/06/21 02:52:17;;;;;;;3.45;2.85;;;;;;;15.76;75.76;94272.34;5091605;28;20645;-76
2022/06/21 02:54:50;;;;;;;4.75;3.20;;;;;;;15.74;75.88;94263.72;5090788;28;20237;-76
2022/06/21 02:57:25;;;;;;;7.53;3.03;;;;;;;15.76;76.08;94266.88;5090560;28;20190;-76
2022/06/21 02:59:53;;;;;;;4.20;3.00;;;;;;;15.85;75.82;94263.91;5091328;28;20708;-76
2022/06/21 03:02:24;;;;;;;5.32;3.20;;;;;;;16.05;75.60;94259.88;5090627;28;20672;-76
2022/06/21 03:04:54;;;;;;;4.03;3.17;;;;;;;16.22;75.03;94266.72;5091580;28;20248;-75
2022/06/21 03:07:24;;;;;;;4.80;2.97;;;;;;;16.67;74.14;94260.25;5091926;28;20190;-76
2022/06/21 03:09:51;;;;;;;4.18;3.17;;;;;;;17.11;72.54;94246.56;5091757;28;20286;-78
2022/06/21 03:12:22;;;;;;;4.68;3.40;;;;;;;17.60;70.57;94246.19;5091512;28;20283;-77
2022/06/21 03:14:52;;;;;;;6.63;3.75;;;;;;;18.10;69.45;94243.75;5091470;28;20242;-76
2022/06/21 03:17:24;;;;;;;8.80;3.17;;;;;;;18.83;66.33;94238.94;5091343;28;20268;-76
2022/06/21 03:19:52;;;;;;;4.60;3.35;;;;;;;19.43;64.68;94232.66;5091198;28;20841;-76
2022/06/21 03:22:22;;;;;;;4.55;3.00;;;;;;;20.09;62.16;94230.25;5091021;28;20255;-76
2022/06/21 03:24:52;;;;;;;5.15;3.53;;;;;;;20.67;60.24;94226.06;5090553;28;20230;-76
2022/06/21 03:27:30;;;;;;;6.03;3.78;;;;;;;21.10;58.90;94210.84;5090388;28;20218;-77
2022/06/21 03:29:57;;;;;;;6.85;3.80;;;;;;;21.22;58.51;94218.66;5091601;28;20214;-77
2022/06/21 03:32:27;;;;;;;4.10;3.45;;;;;;;22.14;56.55;94221.78;5091089;28;20214;-77
2022/06/21 03:34:54;;;;;;;4.43;3.67;;;;;;;22.66;54.83;94220.38;5090960;28;20242;-77
2022/06/21 03:37:21;;;;;;;5.97;3.75;;;;;;;22.65;54.29;94218.78;5090342;28;20606;-77
2022/06/21 03:42:39;;;;;;;5.47;3.53;;;;;;;23.42;52.26;94220.06;5090903;28;20221;-77
2022/06/21 03:45:12;;;;;;;4.28;3.33;;;;;;;23.67;51.57;94220.47;5090888;28;20230;-77
2022/06/21 03:47:45;;;;;;;6.18;4.70;;;;;;;24.06;49.51;94225.28;5091176;28;20330;-78
2022/06/21 03:50:18;;;;;;;5.68;4.07;;;;;;;24.47;49.06;94229.69;5090504;28;20214;-78
2022/06/21 03:52:49;;;;;;;4.95;4.40;;;;;;;24.96;47.90;94236.22;5090298;28;20629;-78
2022/06/21 03:55:27;;;;;;;5.40;4.63;;;;;;;25.30;46.86;94239.38;5090758;28;20263;-78
2022/06/21 03:58:02;;;;;;;5.45;4.60;;;;;;;25.85;45.38;94234.91;5090789;28;20339;-78
2022/06/21 04:00:33;;;;;;;5.60;4.50;;;;;;;26.13;45.01;94238.94;5091097;28;20205;-78
2022/06/21 04:03:07;;;;;;;7.68;5.07;;;;;;;26.38;44.06;94227.19;5091090;28;20202;-78
2022/06/21 04:05:39;;;;;;;5.60;4.82;;;;;;;26.11;44.84;94236.59;5090924;28;20195;-78
2022/06/21 04:08:11;;;;;;;5.68;4.63;;;;;;;27.71;41.78;94228.44;5090901;28;20183;-78
2022/06/21 04:10:46;;;;;;;5.47;4.57;;;;;;;28.35;40.12;94217.91;5091031;28;20218;-78
2022/06/21 04:13:20;;;;;;;5.38;4.65;;;;;;;28.07;40.64;94214.84;5091005;28;20218;-78
2022/06/21 04:15:53;;;;;;;9.73;5.45;;;;;;;29.22;38.61;94209.50;5094486;28;20226;-78
2022/06/21 04:18:24;;;;;;;7.45;5.07;;;;;;;29.68;37.03;94205.66;5094464;28;20677;-78
2022/06/21 04:21:00;;;;;;;5.60;5.05;;;;;;;29.69;37.73;94212.81;5094668;28;20207;-78
2022/06/21 04:23:32;;;;;;;5.95;5.13;;;;;;;29.73;37.39;94206.31;5093761;28;20758;-77
2022/06/21 04:26:05;;;;;;;7.25;5.70;;;;;;;28.68;38.61;94213.53;5094400;28;20225;-78
2022/06/21 04:28:38;;;;;;;6.20;4.80;;;;;;;29.53;37.38;94210.28;5094083;28;20234;-78
2022/06/21 04:31:12;;;;;;;6.00;5.30;;;;;;;30.02;37.00;94206.72;5094172;28;20232;-78
2022/06/21 04:33:44;;;;;;;9.50;5.75;;;;;;;30.37;35.93;94194.00;5094136;28;20261;-78
2022/06/21 04:36:17;;;;;;;7.40;5.38;;;;;;;30.28;36.58;94185.63;5094058;28;20195;-80
2022/06/21 04:38:52;;;;;;;8.35;6.07;;;;;;;31.08;35.00;94185.22;5093990;28;20222;-79
2022/06/21 04:41:27;;;;;;;8.48;5.80;;;;;;;30.18;36.22;94192.44;5093804;28;20225;-79
2022/06/21 04:44:00;;;;;;;7.82;5.72;;;;;;;30.46;35.72;94190.44;5093881;28;20229;-81
2022/06/21 04:46:32;;;;;;;6.97;5.50;;;;;;;30.63;35.55;94197.25;5093746;28;20187;-79
2022/06/21 04:49:08;;;;;;;6.43;5.25;;;;;;;31.35;34.81;94191.97;5093641;28;20264;-79
2022/06/21 04:51:39;;;;;;;7.72;5.45;;;;;;;30.74;35.24;94186.38;5093862;28;20439;-80
2022/06/21 04:54:12;;;;;;;7.22;5.78;;;;;;;30.78;34.86;94200.19;5093416;28;20222;-79
2022/06/21 04:56:47;;;;;;;6.18;5.30;;;;;;;31.72;33.93;94207.38;5093620;28;20222;-79
2022/06/21 04:59:20;;;;;;;9.35;6.15;;;;;;;32.28;33.14;94210.66;5093628;28;20186;-78
2022/06/21 05:01:47;;;;;;;6.55;5.55;;;;;;;31.35;34.24;94211.59;5093412;28;20538;-78
2022/06/21 05:04:23;;;;;;;9.70;6.40;;;;;;;30.98;34.20;94213.69;5094509;28;20224;-79
2022/06/21 05:06:52;;;;;;;9.93;6.85;;;;;;;31.57;33.26;94217.69;5095108;28;20197;-79
2022/06/21 05:09:23;;;;;;;8.20;6.15;;;;;;;29.80;36.43;94231.13;5093393;28;20646;-79
2022/06/21 05:11:56;;;;;;;7.00;5.90;;;;;;;29.02;38.83;94236.97;5093368;28;20230;-79
2022/06/21 05:14:28;;;;;;;7.43;6.35;;;;;;;28.97;38.92;94239.13;5093358;28;20230;-78
2022/06/21 05:16:55;;;;;;;7.65;6.00;;;;;;;29.70;37.10;94247.09;5092890;28;20306;-79
2022/06/21 05:19:26;;;;;;;10.60;6.63;;;;;;;29.48;37.31;94247.19;5092894;28;20288;-79
2022/06/21 05:21:57;;;;;;;8.15;6.80;;;;;;;30.41;36.18;94244.16;5093223;28;20268;-79
2022/06/21 05:24:25;;;;;;;7.90;6.53;;;;;;;32.27;33.23;94237.13;5091955;28;20308;-79
2022/06/21 05:27:07;;;;;;;9.77;7.20;;;;;;;30.70;35.20;94240.94;5092297;28;20628;-77
2022/06/21 05:29:41;;;;;;;7.28;5.65;;;;;;;30.55;35.52;94237.97;5092432;28;20194;-77
2022/06/21 05:32:15;;;;;;;8.48;6.47;;;;;;;29.94;36.69;94245.28;5092901;28;20215;-79
2022/06/21 05:34:46;;;;;;;8.10;6.80;;;;;;;30.68;35.69;94238.59;5092604;28;20311;-78
2022/06/21 05:37:24;;;;;;;12.95;7.00;;;;;;;32.26;33.43;94230.75;5092372;28;20279;-79
2022/06/21 05:39:53;;;;;;;9.20;6.68;;;;;;;33.76;31.59;94229.97;5092349;28;20276;-79
2022/06/21 05:42:23;;;;;;;9.88;6.68;;;;;;;33.59;31.53;94231.75;5092649;28;20277;-80
2022/06/21 05:44:53;;;;;;;8.18;6.15;;;;;;;33.76;31.46;94229.97;5092968;28;20194;-79
2022/06/21 05:47:27;;;;;;;11.82;6.80;;;;;;;34.33;30.81;94223.91;5092194;28;20245;-79
2022/06/21 05:49:56;;;;;;;8.05;5.90;;;;;;;35.02;29.92;94221.38;5091824;28;20309;-80
2022/06/21 05:52:27;;;;;;;11.70;7.40;;;;;;;34.22;31.18;94226.53;5092016;28;20279;-80
2022/06/21 05:55:02;;;;;;;9.02;6.95;;;;;;;33.09;31.97;94223.22;5091761;28;20241;-79
2022/06/21 05:57:38;;;;;;;10.48;7.40;;;;;;;34.11;30.96;94220.78;5092027;28;20224;-80
2022/06/21 06:00:17;;;;;;;7.72;6.30;;;;;;;34.71;30.74;94224.88;5092492;28;20644;-80
2022/06/21 06:02:49;;;;;;;9.90;7.03;;;;;;;35.09;29.88;94213.28;5092025;28;20336;-80
2022/06/21 06:05:21;;;;;;;10.40;7.53;;;;;;;33.33;31.18;94219.56;5092565;28;20577;-79
2022/06/21 06:07:52;;;;;;;10.80;7.55;;;;;;;32.41;32.72;94214.75;5092452;28;20226;-79
2022/06/21 06:10:21;;;;;;;10.95;7.13;;;;;;;34.31;30.33;94214.41;5092531;28;20225;-77
2022/06/21 06:12:55;;;;;;;8.68;7.03;;;;;;;32.35;32.78;94222.31;5091983;28;20862;-78
2022/06/21 06:15:27;;;;;;;13.18;7.25;;;;;;;32.40;33.38;94224.41;5092095;28;20237;-81
2022/06/21 06:17:59;;;;;;;9.25;7.07;;;;;;;32.82;32.62;94223.47;5092312;28;20247;-79
2022/06/21 06:20:31;;;;;;;6.70;5.22;;;;;;;33.11;32.49;94215.09;5092081;28;20272;-80
2022/06/21 06:23:03;;;;;;;11.95;7.30;;;;;;;30.97;34.79;94240.91;5091724;28;20716;-74
2022/06/21 06:25:35;;;;;;;8.13;6.53;;;;;;;30.48;35.96;94232.66;5091528;28;20349;-78
2022/06/21 06:28:07;;;;;;;9.57;6.65;;;;;;;31.61;34.35;94232.31;5091683;28;20244;-79
2022/06/21 06:30:42;;;;;;;10.50;5.93;;;;;;;33.45;31.61;94232.53;5091879;28;20229;-79
2022/06/21 06:33:17;;;;;;;12.32;6.55;;;;;;;32.19;32.79;94242.34;5091437;28;20182;-76
2022/06/21 06:35:46;;;;;;;7.90;5.60;;;;;;;32.78;32.61;94248.16;5091472;28;20233;-78
2022/06/21 06:38:15;;;;;;;10.85;6.78;;;;;;;33.27;31.73;94235.53;5091858;28;20223;-81
2022/06/21 06:40:46;;;;;;;6.95;6.10;;;;;;;34.62;30.04;94239.09;5092052;28;20218;-79
2022/06/21 06:43:19;;;;;;;8.20;6.70;;;;;;;33.04;31.37;94237.16;5091764;28;20590;-78
2022/06/21 06:45:49;;;;;;;10.00;6.25;;;;;;;34.19;30.60;94233.16;5091492;28;20233;-79
2022/06/21 06:48:24;;;;;;;6.70;5.90;;;;;;;35.32;29.69;94224.78;5091636;28;20269;-79
2022/06/21 06:50:55;;;;;;;9.07;6.20;;;;;;;35.37;29.52;94226.88;5091673;28;20186;-79
2022/06/21 06:53:30;;;;;;;10.98;7.10;;;;;;;33.57;30.95;94239.88;5091389;28;20727;-79
2022/06/21 06:56:03;;;;;;;11.13;7.10;;;;;;;34.37;29.64;94221.66;5091180;28;20291;-79
2022/06/21 06:58:37;;;;;;;8.23;6.18;;;;;;;34.81;30.11;94227.06;5091257;28;20198;-80
2022/06/21 07:01:12;;;;;;;6.07;5.32;;;;;;;35.84;28.83;94219.84;5091646;28;20186;-79
2022/06/21 07:03:47;;;;;;;7.60;5.18;;;;;;;36.41;28.13;94216.84;5091483;28;20190;-80
2022/06/21 07:06:19;;;;;;;7.10;5.63;;;;;;;33.55;30.92;94214.31;5091516;28;20224;-78
2022/06/21 07:08:52;;;;;;;8.45;6.00;;;;;;;33.30;32.30;94210.09;5091602;28;20302;-79
2022/06/21 07:11:23;;;;;;;8.48;5.68;;;;;;;32.29;33.72;94218.59;5091326;28;20222;-80
2022/06/21 07:13:51;;;;;;;8.95;5.97;;;;;;;33.25;32.02;94207.16;5091115;28;20737;-79
2022/06/21 07:16:23;;;;;;;16.88;6.63;;;;;;;32.12;33.46;94209.03;5091113;28;20597;-79
2022/06/21 07:18:53;;;;;;;7.00;5.57;;;;;;;32.31;34.21;94216.09;5091449;28;20283;-80
2022/06/21 07:21:22;;;;;;;7.47;5.53;;;;;;;31.65;35.87;94210.56;5091120;28;20275;-80
2022/06/21 07:23:52;;;;;;;8.43;6.00;;;;;;;31.44;36.42;94212.31;5090948;28;20230;-78
2022/06/21 07:26:25;;;;;;;8.90;5.50;;;;;;;32.16;35.24;94209.63;5090975;28;20278;-79
2022/06/21 07:28:56;;;;;;;6.03;4.78;;;;;;;31.31;36.19;94213.75;5090840;28;20221;-76
2022/06/21 07:31:31;;;;;;;9.25;5.63;;;;;;;31.24;37.49;94212.09;5091340;28;20190;-76
2022/06/21 07:34:04;;;;;;;8.55;4.68;;;;;;;31.02;37.92;94220.69;5090299;28;20264;-79
2022/06/21 07:36:36;;;;;;;5.63;4.38;;;;;;;31.04;37.27;94218.16;5090321;28;20230;-76
2022/06/21 07:39:09;;;;;;;8.85;4.00;;;;;;;31.65;36.71;94210.56;5091257;28;20268;-76
2022/06/21 07:41:41;;;;;;;6.60;4.25;;;;;;;29.87;40.25;94219.69;5091408;28;20190;-75
2022/06/21 07:44:12;;;;;;;7.40;4.57;;;;;;;30.71;38.94;94228.50;5091029;28;20272;-72
2022/06/21 07:46:43;;;;;;;7.22;4.20;;;;;;;30.88;36.31;94226.16;5090565;28;20222;-78
2022/06/21 07:49:19;;;;;;;5.57;4.22;;;;;;;30.73;37.79;94221.19;5093021;28;20193;-78
2022/06/21 07:51:49;;;;;;;4.72;4.18;;;;;;;30.12;38.49;94238.22;5094449;28;20240;-70
2022/06/21 07:54:20;;;;;;;4.85;4.25;;;;;;;28.58;40.86;94236.97;5095074;28;20195;-79
2022/06/21 07:56:52;;;;;;;5.25;3.65;;;;;;;28.48;41.25;94243.72;5094352;28;20218;-79
2022/06/21 07:59:22;;;;;;;6.70;4.03;;;;;;;28.36;41.04;94241.75;5094875;28;20182;-79
2022/06/21 08:07:47;;;;;;;5.80;3.88;;;;;;;29.38;40.53;94247.56;5051674;28;20183;-74
2022/06/21 08:10:21;;;;;;;4.78;4.07;;;;;;;29.20;41.13;94245.47;5077555;28;20279;-78
2022/06/21 08:12:49;;;;;;;5.20;4.20;;;;;;;28.81;42.79;94256.09;5094222;28;20800;-80
2022/06/21 08:15:16;;;;;;;7.10;4.30;;;;;;;29.57;41.35;94254.81;5094428;28;20558;-78
2022/06/21 08:17:53;;;;;;;6.68;4.30;;;;;;;29.43;41.63;94250.56;5094357;28;20585;-79
2022/06/21 08:20:24;;;;;;;8.25;4.07;;;;;;;29.00;42.71;94266.13;5094205;28;20223;-79
2022/06/21 08:22:57;;;;;;;6.10;4.40;;;;;;;29.29;42.56;94263.03;5094695;28;20229;-76
2022/06/21 08:25:30;;;;;;;5.07;4.18;;;;;;;28.25;43.71;94254.06;5094682;28;20234;-72
2022/06/21 08:28:01;;;;;;;8.70;5.22;;;;;;;28.75;43.77;94257.06;5094126;28;20230;-72
2022/06/21 08:30:37;;;;;;;6.05;4.95;;;;;;;29.22;41.90;94265.31;5094165;28;20559;-71
2022/06/21 08:33:09;;;;;;;6.97;5.28;;;;;;;28.76;43.49;94264.22;5094070;28;20246;-78
2022/06/21 08:35:39;;;;;;;7.22;4.85;;;;;;;28.47;44.13;94264.44;5093929;28;20241;-76
2022/06/21 08:38:12;;;;;;;8.82;5.22;;;;;;;28.18;44.68;94264.63;5094100;28;20287;-80
2022/06/21 08:44:35;;;;;;;10.65;6.15;;;;;;;28.90;44.28;94258.16;5094146;28;20578;-77
2022/06/21 08:47:28;;;;;;;12.23;6.70;;;;;;;29.77;44.10;94263.59;5094140;28;20194;-77
2022/06/21 08:50:19;;;;;;;8.13;5.38;;;;;;;29.06;44.47;94260.72;5093780;28;20504;-81
2022/06/21 08:53:03;;;;;;;12.10;6.00;;;;;;;28.90;44.49;94253.34;5094048;28;20202;-76
2022/06/21 08:55:40;;;;;;;9.73;5.80;;;;;;;28.36;45.84;94252.91;5093807;28;20765;-74
2022/06/21 08:58:16;;;;;;;8.45;5.43;;;;;;;28.66;45.50;94255.00;5073265;28;20194;-79
2022/06/21 09:00:50;;;;;;;12.68;6.20;;;;;;;28.82;46.23;94249.28;5072590;28;20191;-75
2022/06/21 09:03:33;;;;;;;9.32;6.30;;;;;;;28.44;46.08;94248.63;5073302;28;20272;-72
2022/06/21 09:06:14;;;;;;;8.65;5.22;;;;;;;28.70;45.45;94238.16;5073856;28;20203;-73
2022/06/21 09:09:24;;;;;;;10.20;6.15;;;;;;;28.63;45.49;94223.25;5073186;28;20284;-76
2022/06/21 09:12:02;;;;;;;10.07;5.72;;;;;;;28.46;46.38;94235.03;5073070;28;20351;-78
2022/06/21 09:14:54;;;;;;;8.70;6.45;;;;;;;28.86;45.68;94233.16;5073403;28;20199;-79
2022/06/21 09:17:31;;;;;;;9.68;6.28;;;;;;;28.78;46.87;94225.50;5073134;28;20280;-80
2022/06/21 09:20:17;;;;;;;10.00;6.13;;;;;;;28.56;46.27;94226.31;5072867;28;20187;-78
2022/06/21 09:23:04;;;;;;;11.57;6.30;;;;;;;28.80;46.33;94225.84;5073043;28;20282;-74
2022/06/21 09:25:43;;;;;;;8.70;6.85;;;;;;;29.22;46.34;94234.63;5072692;28;20709;-73
2022/06/21 09:28:25;;;;;;;8.50;6.65;;;;;;;28.79;46.35;94227.88;5072351;28;20554;-75
2022/06/21 09:30:58;;;;;;;11.90;6.30;;;;;;;28.51;47.75;94234.44;5072454;28;20305;-75
2022/06/21 09:33:36;;;;;;;9.55;6.07;;;;;;;28.57;47.71;94219.47;5071888;28;20231;-79
2022/06/21 09:36:13;;;;;;;8.73;6.35;;;;;;;28.66;46.82;94210.41;5072493;28;20234;-77
2022/06/21 09:38:48;;;;;;;7.93;5.85;;;;;;;28.74;46.74;94225.63;5072396;28;20248;-78
2022/06/21 09:41:21;;;;;;;8.52;6.22;;;;;;;28.93;46.22;94224.56;5072737;28;20222;-78
2022/06/21 09:44:03;;;;;;;10.75;6.07;;;;;;;28.70;47.35;94216.59;5074227;28;20300;-78
2022/06/21 09:46:43;;;;;;;8.07;6.53;;;;;;;28.68;48.16;94218.31;5091993;28;21020;-79
2022/06/21 09:49:19;;;;;;;8.88;6.35;;;;;;;28.82;46.84;94224.19;5092027;28;20222;-81
2022/06/21 09:51:55;;;;;;;7.95;6.07;;;;;;;28.85;47.18;94206.50;5091961;28;20267;-74
2022/06/21 09:54:33;;;;;;;9.85;6.68;;;;;;;28.50;47.20;94202.22;5092741;28;20182;-75
2022/06/21 09:57:12;;;;;;;8.15;5.35;;;;;;;28.44;47.95;94192.88;5092400;28;20221;-72
2022/06/21 09:59:47;;;;;;;11.25;6.70;;;;;;;28.85;47.47;94212.09;5091992;28;20198;-74
2022/06/21 10:02:22;;;;;;;8.18;6.57;;;;;;;28.89;46.46;94211.97;5091730;28;20247;-71
2022/06/21 10:05:00;;;;;;;8.88;6.03;;;;;;;29.08;47.24;94212.84;5092093;28;20193;-79
2022/06/21 10:07:38;;;;;;;8.10;6.22;;;;;;;28.59;46.21;94207.88;5091899;28;20236;-75
2022/06/21 10:10:29;;;;;;;11.00;6.75;;;;;;;28.87;46.12;94206.06;5091915;28;20272;-74
2022/06/21 10:13:11;;;;;;;8.35;6.10;;;;;;;28.56;46.32;94194.84;5091907;28;20195;-72
2022/06/21 10:15:43;;;;;;;7.40;6.30;;;;;;;28.93;46.75;94207.81;5091940;28;20623;-80
2022/06/21 10:18:43;;;;;;;12.20;6.70;;;;;;;29.21;46.12;94203.16;5091937;28;20251;-75
2022/06/21 10:21:29;;;;;;;11.15;6.40;;;;;;;29.43;46.10;94205.91;5088167;28;20222;-78
2022/06/21 10:24:19;;;;;;;9.38;7.57;;;;;;;29.35;45.79;94210.19;5091906;28;20242;-80
2022/06/21 10:27:04;;;;;;;8.50;6.35;;;;;;;28.97;46.51;94197.28;5091767;28;20190;-78
2022/06/21 10:29:53;;;;;;;12.43;6.72;;;;;;;29.33;47.28;94201.50;5092147;28;20226;-79
2022/06/21 10:32:35;;;;;;;9.75;7.25;;;;;;;28.98;46.80;94193.25;5091619;28;20230;-74
2022/06/21 10:35:27;;;;;;;7.40;6.45;;;;;;;29.11;46.70;94198.00;5091806;28;20283;-75
2022/06/21 10:38:10;;;;;;;8.10;6.30;;;;;;;29.97;45.43;94193.34;5091595;28;20677;-77
2022/06/21 10:41:05;;;;;;;6.40;5.63;;;;;;;29.38;44.93;94198.16;5091412;28;20189;-78
2022/06/21 10:44:17;;;;;;;8.18;5.97;;;;;;;29.15;45.28;94213.34;5091703;28;20271;-78
2022/06/21 10:46:49;;;;;;;9.57;6.18;;;;;;;28.87;45.64;94186.53;5071509;28;20222;-72
2022/06/21 10:49:52;;;;;;;9.40;5.78;;;;;;;28.67;45.75;94200.81;5071543;28;20191;-77
2022/06/21 10:52:48;;;;;;;6.57;5.88;;;;;;;28.88;45.33;94200.03;5071122;28;20260;-76
2022/06/21 10:55:45;;;;;;;8.65;6.30;;;;;;;28.94;44.89;94222.53;5065110;28;20199;-78
2022/06/21 10:58:31;;;;;;;8.32;6.30;;;;;;;29.33;44.36;94209.88;5071510;28;20268;-77
2022/06/21 11:01:17;;;;;;;8.13;5.80;;;;;;;29.03;45.43;94199.50;5070809;28;20900;-76
2022/06/21 11:04:15;;;;;;;8.27;6.25;;;;;;;29.34;45.16;94208.63;5071107;28;20202;-79
2022/06/21 11:06:49;;;;;;;13.27;6.18;;;;;;;29.30;46.15;94205.19;5070575;28;20281;-73
2022/06/21 11:09:21;;;;;;;6.57;5.88;;;;;;;29.05;45.80;94214.53;5071310;28;20214;-74
2022/06/21 11:11:56;;;;;;;6.93;5.75;;;;;;;28.68;46.91;94204.38;5070610;28;20596;-71
2022/06/21 11:14:37;;;;;;;6.70;5.50;;;;;;;28.92;45.86;94200.69;5070514;28;20724;-71
2022/06/21 11:17:14;;;;;;;7.50;6.20;;;;;;;28.98;45.93;94226.72;5070641;28;20222;-77
2022/06/21 11:19:55;;;;;;;6.90;6.20;;;;;;;28.85;46.66;94214.09;5070911;28;20595;-77
2022/06/21 11:22:34;;;;;;;9.48;6.40;;;;;;;29.20;47.05;94215.56;5071599;28;20233;-79
2022/06/21 11:25:20;;;;;;;7.70;6.00;;;;;;;29.15;46.99;94223.72;5074469;28;20230;-79
2022/06/21 11:27:57;;;;;;;8.35;6.28;;;;;;;29.38;46.85;94226.06;5074839;28;20730;-74
2022/06/21 11:30:33;;;;;;;8.48;6.72;;;;;;;29.08;46.75;94224.78;5074968;28;20222;-76
2022/06/21 11:33:09;;;;;;;9.05;6.97;;;;;;;29.59;46.85;94219.59;5074408;28;20222;-79
2022/06/21 11:35:43;;;;;;;9.20;7.00;;;;;;;29.60;46.33;94210.00;5074441;28;20232;-78
2022/06/21 11:38:32;;;;;;;7.97;6.90;;;;;;;29.39;45.77;94210.84;5074814;28;20222;-79
2022/06/21 11:41:05;;;;;;;7.97;6.90;;;;;;;29.58;45.92;94212.47;5075322;28;20302;-75
2022/06/21 11:43:49;;;;;;;10.10;6.97;;;;;;;30.09;46.33;94211.97;5074412;28;20407;-78
2022/06/21 11:46:27;;;;;;;9.50;7.28;;;;;;;29.93;45.51;94209.47;5074209;28;20693;-76
2022/06/21 11:49:29;;;;;;;9.00;6.22;;;;;;;30.15;45.62;94204.56;5073927;28;20696;-75
2022/06/21 11:52:23;;;;;;;9.20;6.53;;;;;;;30.25;44.25;94202.53;5074512;28;20731;-76
2022/06/21 11:54:56;;;;;;;8.18;5.93;;;;;;;29.92;43.82;94208.69;5074657;28;20191;-75
2022/06/21 11:57:34;;;;;;;9.95;6.50;;;;;;;29.84;44.27;94206.63;5090123;28;20226;-76
2022/06/21 12:00:05;;;;;;;9.27;7.00;;;;;;;30.68;45.10;94201.47;5094445;28;20788;-77
2022/06/21 12:02:42;;;;;;;11.60;6.95;;;;;;;30.35;42.94;94199.25;5094734;28;20270;-78
2022/06/21 12:05:25;;;;;;;9.48;6.43;;;;;;;30.53;43.60;94192.13;5094881;28;20218;-79
2022/06/21 12:07:58;;;;;;;9.98;6.63;;;;;;;30.06;45.24;94190.56;5094494;28;20225;-78
2022/06/21 12:10:39;;;;;;;10.57;6.75;;;;;;;30.10;44.30;94202.34;5094512;28;20712;-79
2022/06/21 12:13:14;;;;;;;9.27;6.57;;;;;;;30.14;44.31;94191.81;5093939;28;20221;-77
2022/06/21 12:15:59;;;;;;;9.70;6.60;;;;;;;30.07;43.95;94197.69;5094796;28;20195;-75
2022/06/21 12:18:32;;;;;;;8.98;6.68;;;;;;;29.92;44.17;94199.53;5094295;28;20598;-78